Disclaimer

Please do not use the information listed here in-flight or in-navigation, as they are not provided to us by the airports but are provided by volunteers, so they might be outdated.

Search


Regions


Airport information page

Radio informations:
Brisbane Center - 119.55 MHz
Common traffic adv. frequency (CTAF) - 118.8 MHz

Airport informations:
Latitude: 23° 52' 11.00" S
Longitude: 151° 13' 22.00" E
Elevation: 64 feet - 20 meters
Operating hours: N/A
Operating agency: Civil government, landing fees and diplomatic clearance may be required
Timezone: UTC+10
Fuel: 100/130 MIL Spec, low lead, aviation gasoline (BLUE)

Runway information:
10/28 - 5364 x 98 feet< - >1635 x 30 meters

Recent METARs:
YGLA 142000Z AUTO 20004KT 9999 // NCD 21/19 Q1017
YGLA 142030Z AUTO 17004KT 9999 // NCD 23/18 Q1017 RF00.0/000.0
YGLA 142100Z AUTO 14003KT 9999 // SCT019 25/19 Q1017

Airport on the map: